sensor_id;sensor_type;location;lat;lon;timestamp;P1;durP1;ratioP1;P2;durP2;ratioP2
13051;SDS011;6592;47.484;9.726;2023-04-28T00:00:09;2.78;;;1.20;;
13051;SDS011;6592;47.484;9.726;2023-04-28T00:02:38;2.78;;;1.30;;
13051;SDS011;6592;47.484;9.726;2023-04-28T00:05:07;2.45;;;1.15;;
13051;SDS011;6592;47.484;9.726;2023-04-28T00:07:36;2.67;;;1.02;;
13051;SDS011;6592;47.484;9.726;2023-04-28T00:10:06;5.13;;;1.52;;
13051;SDS011;6592;47.484;9.726;2023-04-28T00:12:35;1.98;;;0.77;;
13051;SDS011;6592;47.484;9.726;2023-04-28T00:15:04;3.25;;;1.10;;
13051;SDS011;6592;47.484;9.726;2023-04-28T00:17:35;2.90;;;1.20;;
13051;SDS011;6592;47.484;9.726;2023-04-28T00:20:03;1.90;;;0.88;;
13051;SDS011;6592;47.484;9.726;2023-04-28T00:22:33;6.10;;;1.50;;
13051;SDS011;6592;47.484;9.726;2023-04-28T00:25:01;1.33;;;0.50;;
13051;SDS011;6592;47.484;9.726;2023-04-28T00:27:31;2.03;;;0.88;;
13051;SDS011;6592;47.484;9.726;2023-04-28T00:29:59;1.67;;;0.88;;
13051;SDS011;6592;47.484;9.726;2023-04-28T00:32:28;2.08;;;1.02;;
13051;SDS011;6592;47.484;9.726;2023-04-28T00:34:58;3.15;;;1.15;;
13051;SDS011;6592;47.484;9.726;2023-04-28T00:37:26;3.03;;;1.20;;
13051;SDS011;6592;47.484;9.726;2023-04-28T00:39:54;3.13;;;1.20;;
13051;SDS011;6592;47.484;9.726;2023-04-28T00:42:23;3.83;;;1.25;;
13051;SDS011;6592;47.484;9.726;2023-04-28T00:44:51;2.35;;;1.15;;
13051;SDS011;6592;47.484;9.726;2023-04-28T00:47:20;3.42;;;1.40;;
13051;SDS011;6592;47.484;9.726;2023-04-28T00:49:48;4.47;;;1.30;;
13051;SDS011;6592;47.484;9.726;2023-04-28T00:52:19;3.60;;;1.25;;
13051;SDS011;6592;47.484;9.726;2023-04-28T00:54:47;2.65;;;1.38;;
13051;SDS011;6592;47.484;9.726;2023-04-28T00:57:16;3.72;;;1.20;;
13051;SDS011;6592;47.484;9.726;2023-04-28T00:59:45;2.90;;;1.40;;
13051;SDS011;6592;47.484;9.726;2023-04-28T01:02:14;1.75;;;0.85;;
13051;SDS011;6592;47.484;9.726;2023-04-28T01:04:44;3.75;;;1.30;;
13051;SDS011;6592;47.484;9.726;2023-04-28T01:07:13;2.15;;;1.13;;
13051;SDS011;6592;47.484;9.726;2023-04-28T01:09:43;2.70;;;1.10;;
13051;SDS011;6592;47.484;9.726;2023-04-28T01:12:13;4.15;;;1.30;;
13051;SDS011;6592;47.484;9.726;2023-04-28T01:14:41;2.85;;;1.35;;
13051;SDS011;6592;47.484;9.726;2023-04-28T01:17:10;2.20;;;1.05;;
13051;SDS011;6592;47.484;9.726;2023-04-28T01:19:39;2.28;;;1.17;;
13051;SDS011;6592;47.484;9.726;2023-04-28T01:22:08;2.45;;;1.40;;
13051;SDS011;6592;47.484;9.726;2023-04-28T01:27:09;2.38;;;1.10;;
13051;SDS011;6592;47.484;9.726;2023-04-28T01:29:37;3.47;;;1.60;;
13051;SDS011;6592;47.484;9.726;2023-04-28T01:32:06;2.22;;;1.10;;
13051;SDS011;6592;47.484;9.726;2023-04-28T01:34:35;4.57;;;1.13;;
13051;SDS011;6592;47.484;9.726;2023-04-28T01:37:03;2.28;;;1.00;;
13051;SDS011;6592;47.484;9.726;2023-04-28T01:39:32;3.35;;;1.42;;
13051;SDS011;6592;47.484;9.726;2023-04-28T01:42:03;2.53;;;1.13;;
13051;SDS011;6592;47.484;9.726;2023-04-28T01:44:31;3.47;;;1.17;;
13051;SDS011;6592;47.484;9.726;2023-04-28T01:47:00;2.15;;;1.00;;
13051;SDS011;6592;47.484;9.726;2023-04-28T01:49:28;2.63;;;1.15;;
13051;SDS011;6592;47.484;9.726;2023-04-28T01:51:57;3.90;;;1.30;;
13051;SDS011;6592;47.484;9.726;2023-04-28T01:54:26;2.17;;;1.13;;
13051;SDS011;6592;47.484;9.726;2023-04-28T01:56:54;2.65;;;1.10;;
13051;SDS011;6592;47.484;9.726;2023-04-28T01:59:24;2.90;;;0.95;;
13051;SDS011;6592;47.484;9.726;2023-04-28T02:01:52;2.42;;;1.10;;
13051;SDS011;6592;47.484;9.726;2023-04-28T02:04:21;4.43;;;1.20;;
13051;SDS011;6592;47.484;9.726;2023-04-28T02:06:49;3.67;;;1.15;;
13051;SDS011;6592;47.484;9.726;2023-04-28T02:09:18;5.45;;;1.30;;
13051;SDS011;6592;47.484;9.726;2023-04-28T02:11:46;2.30;;;1.08;;
13051;SDS011;6592;47.484;9.726;2023-04-28T02:14:14;3.05;;;1.40;;
13051;SDS011;6592;47.484;9.726;2023-04-28T02:16:44;2.50;;;1.20;;
13051;SDS011;6592;47.484;9.726;2023-04-28T02:19:13;3.03;;;1.25;;
13051;SDS011;6592;47.484;9.726;2023-04-28T02:21:42;3.00;;;1.27;;
13051;SDS011;6592;47.484;9.726;2023-04-28T02:24:10;2.63;;;1.27;;
13051;SDS011;6592;47.484;9.726;2023-04-28T02:26:38;3.35;;;1.38;;
13051;SDS011;6592;47.484;9.726;2023-04-28T02:29:07;3.53;;;1.40;;
13051;SDS011;6592;47.484;9.726;2023-04-28T02:31:35;3.30;;;1.25;;
13051;SDS011;6592;47.484;9.726;2023-04-28T02:34:05;2.78;;;1.30;;
13051;SDS011;6592;47.484;9.726;2023-04-28T02:36:33;3.25;;;1.30;;
13051;SDS011;6592;47.484;9.726;2023-04-28T02:39:02;3.08;;;1.30;;
13051;SDS011;6592;47.484;9.726;2023-04-28T02:41:30;3.83;;;1.40;;
13051;SDS011;6592;47.484;9.726;2023-04-28T02:43:59;2.63;;;1.30;;
13051;SDS011;6592;47.484;9.726;2023-04-28T02:46:28;3.33;;;1.30;;
13051;SDS011;6592;47.484;9.726;2023-04-28T02:48:56;3.80;;;1.20;;
13051;SDS011;6592;47.484;9.726;2023-04-28T02:51:26;2.97;;;1.38;;
13051;SDS011;6592;47.484;9.726;2023-04-28T02:53:54;3.22;;;1.27;;
13051;SDS011;6592;47.484;9.726;2023-04-28T02:56:22;3.30;;;1.30;;
13051;SDS011;6592;47.484;9.726;2023-04-28T02:58:50;3.47;;;1.17;;
13051;SDS011;6592;47.484;9.726;2023-04-28T03:01:18;3.85;;;1.40;;
13051;SDS011;6592;47.484;9.726;2023-04-28T03:03:47;3.83;;;1.30;;
13051;SDS011;6592;47.484;9.726;2023-04-28T03:06:15;3.38;;;1.17;;
13051;SDS011;6592;47.484;9.726;2023-04-28T03:08:45;6.35;;;1.52;;
13051;SDS011;6592;47.484;9.726;2023-04-28T03:11:13;3.63;;;1.67;;
13051;SDS011;6592;47.484;9.726;2023-04-28T03:13:41;3.83;;;1.45;;
13051;SDS011;6592;47.484;9.726;2023-04-28T03:16:09;3.28;;;1.48;;
13051;SDS011;6592;47.484;9.726;2023-04-28T03:18:38;5.35;;;1.70;;
13051;SDS011;6592;47.484;9.726;2023-04-28T03:21:06;7.70;;;1.90;;
13051;SDS011;6592;47.484;9.726;2023-04-28T03:23:34;6.20;;;2.00;;
13051;SDS011;6592;47.484;9.726;2023-04-28T03:26:04;4.10;;;1.70;;
13051;SDS011;6592;47.484;9.726;2023-04-28T03:28:32;3.40;;;1.63;;
13051;SDS011;6592;47.484;9.726;2023-04-28T03:31:00;7.00;;;1.60;;
13051;SDS011;6592;47.484;9.726;2023-04-28T03:33:28;5.22;;;1.80;;
13051;SDS011;6592;47.484;9.726;2023-04-28T03:35:57;4.32;;;1.55;;
13051;SDS011;6592;47.484;9.726;2023-04-28T03:38:25;3.55;;;1.80;;
13051;SDS011;6592;47.484;9.726;2023-04-28T03:40:53;4.05;;;1.90;;
13051;SDS011;6592;47.484;9.726;2023-04-28T03:43:23;4.47;;;1.70;;
13051;SDS011;6592;47.484;9.726;2023-04-28T03:45:51;3.58;;;1.70;;
13051;SDS011;6592;47.484;9.726;2023-04-28T03:48:20;4.30;;;2.00;;
13051;SDS011;6592;47.484;9.726;2023-04-28T03:50:48;3.33;;;1.67;;
13051;SDS011;6592;47.484;9.726;2023-04-28T03:53:16;4.85;;;1.88;;
13051;SDS011;6592;47.484;9.726;2023-04-28T03:55:45;5.30;;;1.90;;
13051;SDS011;6592;47.484;9.726;2023-04-28T03:58:13;3.78;;;1.63;;
13051;SDS011;6592;47.484;9.726;2023-04-28T04:00:42;4.82;;;1.77;;
13051;SDS011;6592;47.484;9.726;2023-04-28T04:03:11;3.15;;;1.70;;
13051;SDS011;6592;47.484;9.726;2023-04-28T04:05:40;4.10;;;1.90;;
13051;SDS011;6592;47.484;9.726;2023-04-28T04:08:09;4.82;;;1.83;;
13051;SDS011;6592;47.484;9.726;2023-04-28T04:10:37;4.18;;;2.10;;
13051;SDS011;6592;47.484;9.726;2023-04-28T04:13:05;5.05;;;1.90;;
13051;SDS011;6592;47.484;9.726;2023-04-28T04:15:34;5.50;;;2.00;;
13051;SDS011;6592;47.484;9.726;2023-04-28T04:18:04;3.90;;;1.83;;
13051;SDS011;6592;47.484;9.726;2023-04-28T04:20:32;4.70;;;1.83;;
13051;SDS011;6592;47.484;9.726;2023-04-28T04:23:00;4.00;;;1.90;;
13051;SDS011;6592;47.484;9.726;2023-04-28T04:25:29;3.72;;;1.80;;
13051;SDS011;6592;47.484;9.726;2023-04-28T04:27:57;3.95;;;2.00;;
13051;SDS011;6592;47.484;9.726;2023-04-28T04:30:26;6.15;;;2.20;;
13051;SDS011;6592;47.484;9.726;2023-04-28T04:32:54;4.32;;;1.77;;
13051;SDS011;6592;47.484;9.726;2023-04-28T04:35:24;4.40;;;1.90;;
13051;SDS011;6592;47.484;9.726;2023-04-28T04:37:52;5.13;;;1.92;;
13051;SDS011;6592;47.484;9.726;2023-04-28T04:40:20;3.45;;;1.90;;
13051;SDS011;6592;47.484;9.726;2023-04-28T04:42:49;3.13;;;1.65;;
13051;SDS011;6592;47.484;9.726;2023-04-28T04:45:17;4.32;;;1.70;;
13051;SDS011;6592;47.484;9.726;2023-04-28T04:47:45;4.10;;;2.05;;
13051;SDS011;6592;47.484;9.726;2023-04-28T04:50:14;8.15;;;2.22;;
13051;SDS011;6592;47.484;9.726;2023-04-28T04:52:43;5.57;;;2.58;;
13051;SDS011;6592;47.484;9.726;2023-04-28T04:55:11;7.00;;;2.35;;
13051;SDS011;6592;47.484;9.726;2023-04-28T04:57:40;5.22;;;2.50;;
13051;SDS011;6592;47.484;9.726;2023-04-28T05:00:08;5.30;;;2.67;;
13051;SDS011;6592;47.484;9.726;2023-04-28T05:02:37;5.18;;;2.10;;
13051;SDS011;6592;47.484;9.726;2023-04-28T05:05:06;4.60;;;2.47;;
13051;SDS011;6592;47.484;9.726;2023-04-28T05:07:48;5.00;;;2.47;;
13051;SDS011;6592;47.484;9.726;2023-04-28T05:10:16;4.72;;;2.17;;
13051;SDS011;6592;47.484;9.726;2023-04-28T05:12:44;4.05;;;1.80;;
13051;SDS011;6592;47.484;9.726;2023-04-28T05:15:14;3.90;;;2.22;;
13051;SDS011;6592;47.484;9.726;2023-04-28T05:17:42;6.90;;;2.25;;
13051;SDS011;6592;47.484;9.726;2023-04-28T05:20:11;6.47;;;2.22;;
13051;SDS011;6592;47.484;9.726;2023-04-28T05:22:39;5.43;;;2.20;;
13051;SDS011;6592;47.484;9.726;2023-04-28T05:25:09;5.10;;;2.83;;
13051;SDS011;6592;47.484;9.726;2023-04-28T05:27:37;7.07;;;2.60;;
13051;SDS011;6592;47.484;9.726;2023-04-28T05:30:06;6.22;;;2.78;;
13051;SDS011;6592;47.484;9.726;2023-04-28T05:32:36;5.07;;;2.28;;
13051;SDS011;6592;47.484;9.726;2023-04-28T05:35:05;4.85;;;2.53;;
13051;SDS011;6592;47.484;9.726;2023-04-28T05:37:33;6.15;;;2.35;;
13051;SDS011;6592;47.484;9.726;2023-04-28T05:40:03;4.90;;;2.78;;
13051;SDS011;6592;47.484;9.726;2023-04-28T05:42:34;5.28;;;2.80;;
13051;SDS011;6592;47.484;9.726;2023-04-28T05:45:03;6.05;;;2.88;;
13051;SDS011;6592;47.484;9.726;2023-04-28T05:47:32;4.35;;;2.65;;
13051;SDS011;6592;47.484;9.726;2023-04-28T05:50:00;5.65;;;2.90;;
13051;SDS011;6592;47.484;9.726;2023-04-28T05:52:29;7.20;;;3.08;;
13051;SDS011;6592;47.484;9.726;2023-04-28T05:54:57;5.55;;;2.67;;
13051;SDS011;6592;47.484;9.726;2023-04-28T05:57:25;6.20;;;2.50;;
13051;SDS011;6592;47.484;9.726;2023-04-28T06:00:00;5.72;;;2.38;;
13051;SDS011;6592;47.484;9.726;2023-04-28T06:02:28;5.43;;;2.47;;
13051;SDS011;6592;47.484;9.726;2023-04-28T06:04:57;3.33;;;1.80;;
13051;SDS011;6592;47.484;9.726;2023-04-28T06:07:26;4.40;;;2.03;;
13051;SDS011;6592;47.484;9.726;2023-04-28T06:09:54;4.78;;;2.17;;
13051;SDS011;6592;47.484;9.726;2023-04-28T06:12:22;8.20;;;2.42;;
13051;SDS011;6592;47.484;9.726;2023-04-28T06:14:50;4.38;;;2.50;;
13051;SDS011;6592;47.484;9.726;2023-04-28T06:17:22;5.30;;;1.98;;
13051;SDS011;6592;47.484;9.726;2023-04-28T06:19:50;5.18;;;2.53;;
13051;SDS011;6592;47.484;9.726;2023-04-28T06:22:19;5.53;;;2.40;;
13051;SDS011;6592;47.484;9.726;2023-04-28T06:24:48;5.07;;;2.90;;
13051;SDS011;6592;47.484;9.726;2023-04-28T06:27:16;4.25;;;1.92;;
13051;SDS011;6592;47.484;9.726;2023-04-28T06:29:44;4.43;;;2.47;;
13051;SDS011;6592;47.484;9.726;2023-04-28T06:32:12;5.22;;;2.65;;
13051;SDS011;6592;47.484;9.726;2023-04-28T06:34:42;5.97;;;2.83;;
13051;SDS011;6592;47.484;9.726;2023-04-28T06:37:10;4.80;;;2.63;;
13051;SDS011;6592;47.484;9.726;2023-04-28T06:39:38;4.57;;;2.45;;
13051;SDS011;6592;47.484;9.726;2023-04-28T06:42:06;5.97;;;2.33;;
13051;SDS011;6592;47.484;9.726;2023-04-28T06:44:34;4.70;;;2.42;;
13051;SDS011;6592;47.484;9.726;2023-04-28T06:47:03;5.90;;;2.05;;
13051;SDS011;6592;47.484;9.726;2023-04-28T06:49:31;3.42;;;1.70;;
13051;SDS011;6592;47.484;9.726;2023-04-28T06:52:00;5.50;;;2.17;;
13051;SDS011;6592;47.484;9.726;2023-04-28T06:54:29;7.40;;;3.22;;
13051;SDS011;6592;47.484;9.726;2023-04-28T06:56:57;5.55;;;2.53;;
13051;SDS011;6592;47.484;9.726;2023-04-28T06:59:25;8.27;;;2.65;;
13051;SDS011;6592;47.484;9.726;2023-04-28T07:01:53;2.40;;;1.25;;
13051;SDS011;6592;47.484;9.726;2023-04-28T07:04:22;5.55;;;2.67;;
13051;SDS011;6592;47.484;9.726;2023-04-28T07:06:50;5.70;;;2.35;;
13051;SDS011;6592;47.484;9.726;2023-04-28T07:09:20;6.50;;;2.47;;
13051;SDS011;6592;47.484;9.726;2023-04-28T07:11:49;6.78;;;2.50;;
13051;SDS011;6592;47.484;9.726;2023-04-28T07:14:17;5.40;;;3.15;;
13051;SDS011;6592;47.484;9.726;2023-04-28T07:16:45;5.70;;;2.72;;
13051;SDS011;6592;47.484;9.726;2023-04-28T07:19:14;4.95;;;2.45;;
13051;SDS011;6592;47.484;9.726;2023-04-28T07:21:42;5.40;;;2.45;;
13051;SDS011;6592;47.484;9.726;2023-04-28T07:24:11;4.78;;;2.25;;
13051;SDS011;6592;47.484;9.726;2023-04-28T07:26:41;6.38;;;2.28;;
13051;SDS011;6592;47.484;9.726;2023-04-28T07:29:09;4.00;;;1.80;;
13051;SDS011;6592;47.484;9.726;2023-04-28T07:31:39;4.75;;;2.13;;
13051;SDS011;6592;47.484;9.726;2023-04-28T07:34:07;5.93;;;3.08;;
13051;SDS011;6592;47.484;9.726;2023-04-28T07:36:35;4.18;;;2.10;;
13051;SDS011;6592;47.484;9.726;2023-04-28T07:39:03;4.30;;;1.65;;
13051;SDS011;6592;47.484;9.726;2023-04-28T07:41:35;3.53;;;1.58;;
13051;SDS011;6592;47.484;9.726;2023-04-28T07:44:05;2.50;;;1.60;;
13051;SDS011;6592;47.484;9.726;2023-04-28T07:46:34;4.88;;;2.15;;
13051;SDS011;6592;47.484;9.726;2023-04-28T07:49:02;3.40;;;1.67;;
13051;SDS011;6592;47.484;9.726;2023-04-28T07:51:31;3.28;;;1.70;;
13051;SDS011;6592;47.484;9.726;2023-04-28T07:53:59;5.80;;;1.98;;
13051;SDS011;6592;47.484;9.726;2023-04-28T07:56:27;4.93;;;2.58;;
13051;SDS011;6592;47.484;9.726;2023-04-28T07:58:56;3.90;;;1.85;;
13051;SDS011;6592;47.484;9.726;2023-04-28T08:01:26;4.32;;;2.10;;
13051;SDS011;6592;47.484;9.726;2023-04-28T08:03:54;6.25;;;2.15;;
13051;SDS011;6592;47.484;9.726;2023-04-28T08:06:22;3.80;;;1.70;;
13051;SDS011;6592;47.484;9.726;2023-04-28T08:08:51;4.07;;;1.73;;
13051;SDS011;6592;47.484;9.726;2023-04-28T08:11:19;4.65;;;1.90;;
13051;SDS011;6592;47.484;9.726;2023-04-28T08:13:47;4.10;;;1.90;;
13051;SDS011;6592;47.484;9.726;2023-04-28T08:16:15;3.97;;;1.65;;
13051;SDS011;6592;47.484;9.726;2023-04-28T08:18:46;3.67;;;2.00;;
13051;SDS011;6592;47.484;9.726;2023-04-28T08:21:14;3.30;;;1.75;;
13051;SDS011;6592;47.484;9.726;2023-04-28T08:23:43;3.17;;;1.70;;
13051;SDS011;6592;47.484;9.726;2023-04-28T08:26:11;3.65;;;1.95;;
13051;SDS011;6592;47.484;9.726;2023-04-28T08:28:40;2.72;;;1.50;;
13051;SDS011;6592;47.484;9.726;2023-04-28T08:31:08;4.80;;;2.00;;
13051;SDS011;6592;47.484;9.726;2023-04-28T08:33:36;3.35;;;1.73;;
13051;SDS011;6592;47.484;9.726;2023-04-28T08:36:06;4.15;;;1.85;;
13051;SDS011;6592;47.484;9.726;2023-04-28T08:38:37;4.43;;;1.80;;
13051;SDS011;6592;47.484;9.726;2023-04-28T08:41:05;3.10;;;1.45;;
13051;SDS011;6592;47.484;9.726;2023-04-28T08:43:34;2.70;;;1.40;;
13051;SDS011;6592;47.484;9.726;2023-04-28T08:46:04;5.55;;;1.95;;
13051;SDS011;6592;47.484;9.726;2023-04-28T08:48:37;3.78;;;2.05;;
13051;SDS011;6592;47.484;9.726;2023-04-28T08:51:08;3.88;;;1.90;;
13051;SDS011;6592;47.484;9.726;2023-04-28T08:53:43;5.03;;;2.00;;
13051;SDS011;6592;47.484;9.726;2023-04-28T08:56:36;6.15;;;2.35;;
13051;SDS011;6592;47.484;9.726;2023-04-28T08:59:04;4.90;;;2.38;;
13051;SDS011;6592;47.484;9.726;2023-04-28T09:01:33;4.70;;;2.60;;
13051;SDS011;6592;47.484;9.726;2023-04-28T09:04:02;5.80;;;2.35;;
13051;SDS011;6592;47.484;9.726;2023-04-28T09:06:33;6.03;;;1.85;;
13051;SDS011;6592;47.484;9.726;2023-04-28T09:09:18;5.78;;;2.20;;
13051;SDS011;6592;47.484;9.726;2023-04-28T09:11:51;3.85;;;2.00;;
13051;SDS011;6592;47.484;9.726;2023-04-28T09:14:20;3.22;;;2.10;;
13051;SDS011;6592;47.484;9.726;2023-04-28T09:16:49;5.32;;;2.10;;
13051;SDS011;6592;47.484;9.726;2023-04-28T09:19:18;5.93;;;2.25;;
13051;SDS011;6592;47.484;9.726;2023-04-28T09:21:49;4.35;;;2.00;;
13051;SDS011;6592;47.484;9.726;2023-04-28T09:24:26;4.35;;;2.25;;
13051;SDS011;6592;47.484;9.726;2023-04-28T09:26:56;4.95;;;2.35;;
13051;SDS011;6592;47.484;9.726;2023-04-28T09:29:24;5.25;;;2.33;;
13051;SDS011;6592;47.484;9.726;2023-04-28T09:31:52;3.80;;;2.15;;
13051;SDS011;6592;47.484;9.726;2023-04-28T09:34:21;4.43;;;2.20;;
13051;SDS011;6592;47.484;9.726;2023-04-28T09:36:50;5.28;;;1.90;;
13051;SDS011;6592;47.484;9.726;2023-04-28T09:39:27;3.80;;;1.40;;
13051;SDS011;6592;47.484;9.726;2023-04-28T09:41:57;4.20;;;1.92;;
13051;SDS011;6592;47.484;9.726;2023-04-28T09:44:28;3.85;;;1.90;;
13051;SDS011;6592;47.484;9.726;2023-04-28T09:46:57;4.13;;;1.80;;
13051;SDS011;6592;47.484;9.726;2023-04-28T09:49:25;3.53;;;1.95;;
13051;SDS011;6592;47.484;9.726;2023-04-28T09:51:54;4.03;;;2.05;;
13051;SDS011;6592;47.484;9.726;2023-04-28T09:54:39;5.57;;;2.05;;
13051;SDS011;6592;47.484;9.726;2023-04-28T09:57:08;3.72;;;1.70;;
13051;SDS011;6592;47.484;9.726;2023-04-28T09:59:37;3.55;;;1.92;;
13051;SDS011;6592;47.484;9.726;2023-04-28T10:02:05;3.45;;;1.65;;
13051;SDS011;6592;47.484;9.726;2023-04-28T10:04:53;3.50;;;1.88;;
13051;SDS011;6592;47.484;9.726;2023-04-28T10:07:24;4.18;;;1.90;;
13051;SDS011;6592;47.484;9.726;2023-04-28T10:09:53;4.30;;;2.13;;
13051;SDS011;6592;47.484;9.726;2023-04-28T10:12:22;4.20;;;1.00;;
13051;SDS011;6592;47.484;9.726;2023-04-28T10:14:51;4.38;;;2.45;;
13051;SDS011;6592;47.484;9.726;2023-04-28T10:17:20;4.10;;;2.17;;
13051;SDS011;6592;47.484;9.726;2023-04-28T10:19:51;3.87;;;2.33;;
13051;SDS011;6592;47.484;9.726;2023-04-28T10:22:28;5.38;;;3.53;;
13051;SDS011;6592;47.484;9.726;2023-04-28T10:25:17;7.70;;;4.70;;
13051;SDS011;6592;47.484;9.726;2023-04-28T10:27:52;4.70;;;3.55;;
13051;SDS011;6592;47.484;9.726;2023-04-28T10:30:21;4.78;;;2.78;;
13051;SDS011;6592;47.484;9.726;2023-04-28T10:35:52;2.28;;;1.10;;
13051;SDS011;6592;47.484;9.726;2023-04-28T10:38:22;3.22;;;1.50;;
13051;SDS011;6592;47.484;9.726;2023-04-28T10:40:50;4.25;;;2.03;;
13051;SDS011;6592;47.484;9.726;2023-04-28T10:43:32;2.95;;;1.67;;
13051;SDS011;6592;47.484;9.726;2023-04-28T10:46:03;3.72;;;2.03;;
13051;SDS011;6592;47.484;9.726;2023-04-28T10:48:52;3.35;;;1.92;;
13051;SDS011;6592;47.484;9.726;2023-04-28T10:51:22;3.50;;;1.83;;
13051;SDS011;6592;47.484;9.726;2023-04-28T10:59:48;4.70;;;2.13;;
13051;SDS011;6592;47.484;9.726;2023-04-28T11:05:16;4.75;;;1.88;;
13051;SDS011;6592;47.484;9.726;2023-04-28T11:11:13;2.78;;;1.15;;
13051;SDS011;6592;47.484;9.726;2023-04-28T11:13:49;4.15;;;1.98;;
13051;SDS011;6592;47.484;9.726;2023-04-28T11:16:19;7.07;;;1.63;;
13051;SDS011;6592;47.484;9.726;2023-04-28T11:18:52;3.63;;;1.90;;
13051;SDS011;6592;47.484;9.726;2023-04-28T11:21:29;4.18;;;2.05;;
13051;SDS011;6592;47.484;9.726;2023-04-28T11:23:58;4.18;;;1.95;;
13051;SDS011;6592;47.484;9.726;2023-04-28T11:26:28;4.05;;;2.17;;
13051;SDS011;6592;47.484;9.726;2023-04-28T11:28:57;4.45;;;2.45;;
13051;SDS011;6592;47.484;9.726;2023-04-28T11:31:26;3.58;;;2.08;;
13051;SDS011;6592;47.484;9.726;2023-04-28T11:34:02;3.95;;;2.28;;
13051;SDS011;6592;47.484;9.726;2023-04-28T11:36:32;5.10;;;2.20;;
13051;SDS011;6592;47.484;9.726;2023-04-28T11:39:02;5.15;;;2.35;;
13051;SDS011;6592;47.484;9.726;2023-04-28T11:41:35;3.45;;;2.10;;
13051;SDS011;6592;47.484;9.726;2023-04-28T11:44:11;5.63;;;2.10;;
13051;SDS011;6592;47.484;9.726;2023-04-28T11:46:43;4.78;;;2.40;;
13051;SDS011;6592;47.484;9.726;2023-04-28T11:49:16;3.88;;;2.13;;
13051;SDS011;6592;47.484;9.726;2023-04-28T11:51:44;5.30;;;2.40;;
13051;SDS011;6592;47.484;9.726;2023-04-28T11:54:18;4.70;;;2.35;;
13051;SDS011;6592;47.484;9.726;2023-04-28T11:56:49;3.92;;;2.20;;
13051;SDS011;6592;47.484;9.726;2023-04-28T11:59:21;3.50;;;1.90;;
13051;SDS011;6592;47.484;9.726;2023-04-28T12:01:52;5.90;;;2.45;;
13051;SDS011;6592;47.484;9.726;2023-04-28T12:04:26;4.78;;;1.80;;
13051;SDS011;6592;47.484;9.726;2023-04-28T12:07:02;4.35;;;2.30;;
13051;SDS011;6592;47.484;9.726;2023-04-28T12:09:32;5.20;;;2.17;;
13051;SDS011;6592;47.484;9.726;2023-04-28T12:12:03;4.72;;;2.08;;
13051;SDS011;6592;47.484;9.726;2023-04-28T12:14:32;5.25;;;2.58;;
13051;SDS011;6592;47.484;9.726;2023-04-28T12:17:22;4.28;;;2.20;;
13051;SDS011;6592;47.484;9.726;2023-04-28T12:19:52;5.45;;;2.25;;
13051;SDS011;6592;47.484;9.726;2023-04-28T12:22:20;3.88;;;2.33;;
13051;SDS011;6592;47.484;9.726;2023-04-28T12:25:01;4.10;;;2.00;;
13051;SDS011;6592;47.484;9.726;2023-04-28T12:27:35;4.75;;;2.25;;
13051;SDS011;6592;47.484;9.726;2023-04-28T12:32:51;4.65;;;2.80;;
13051;SDS011;6592;47.484;9.726;2023-04-28T12:35:21;4.28;;;2.65;;
13051;SDS011;6592;47.484;9.726;2023-04-28T12:37:50;4.35;;;2.47;;
13051;SDS011;6592;47.484;9.726;2023-04-28T12:40:20;4.65;;;2.60;;
13051;SDS011;6592;47.484;9.726;2023-04-28T12:42:49;5.45;;;2.45;;
13051;SDS011;6592;47.484;9.726;2023-04-28T12:45:18;5.57;;;2.40;;
13051;SDS011;6592;47.484;9.726;2023-04-28T12:47:46;3.90;;;2.42;;
13051;SDS011;6592;47.484;9.726;2023-04-28T12:50:14;3.80;;;2.42;;
13051;SDS011;6592;47.484;9.726;2023-04-28T12:52:42;4.30;;;2.38;;
13051;SDS011;6592;47.484;9.726;2023-04-28T12:55:11;4.78;;;2.63;;
13051;SDS011;6592;47.484;9.726;2023-04-28T12:57:39;6.22;;;2.35;;
13051;SDS011;6592;47.484;9.726;2023-04-28T13:00:09;4.28;;;2.60;;
13051;SDS011;6592;47.484;9.726;2023-04-28T13:02:41;6.45;;;3.13;;
13051;SDS011;6592;47.484;9.726;2023-04-28T13:05:10;5.88;;;2.88;;
13051;SDS011;6592;47.484;9.726;2023-04-28T13:07:39;4.88;;;2.60;;
13051;SDS011;6592;47.484;9.726;2023-04-28T13:10:08;4.75;;;2.83;;
13051;SDS011;6592;47.484;9.726;2023-04-28T13:12:36;4.20;;;2.15;;
13051;SDS011;6592;47.484;9.726;2023-04-28T13:15:05;5.82;;;2.72;;
13051;SDS011;6592;47.484;9.726;2023-04-28T13:17:35;4.93;;;2.67;;
13051;SDS011;6592;47.484;9.726;2023-04-28T13:20:04;6.85;;;2.80;;
13051;SDS011;6592;47.484;9.726;2023-04-28T13:22:33;4.28;;;2.67;;
13051;SDS011;6592;47.484;9.726;2023-04-28T13:25:01;5.05;;;2.60;;
13051;SDS011;6592;47.484;9.726;2023-04-28T13:27:30;4.38;;;2.42;;
13051;SDS011;6592;47.484;9.726;2023-04-28T13:29:58;3.35;;;2.10;;
13051;SDS011;6592;47.484;9.726;2023-04-28T13:32:26;3.92;;;2.08;;
13051;SDS011;6592;47.484;9.726;2023-04-28T13:34:56;5.20;;;2.08;;
13051;SDS011;6592;47.484;9.726;2023-04-28T13:37:24;3.17;;;1.80;;
13051;SDS011;6592;47.484;9.726;2023-04-28T13:39:53;4.90;;;2.40;;
13051;SDS011;6592;47.484;9.726;2023-04-28T13:42:21;4.07;;;1.90;;
13051;SDS011;6592;47.484;9.726;2023-04-28T13:44:49;3.28;;;1.95;;
13051;SDS011;6592;47.484;9.726;2023-04-28T13:47:17;4.43;;;1.80;;
13051;SDS011;6592;47.484;9.726;2023-04-28T13:49:46;5.45;;;2.13;;
13051;SDS011;6592;47.484;9.726;2023-04-28T13:52:16;2.83;;;1.55;;
13051;SDS011;6592;47.484;9.726;2023-04-28T13:54:44;4.50;;;2.03;;
13051;SDS011;6592;47.484;9.726;2023-04-28T13:57:13;2.95;;;1.63;;
13051;SDS011;6592;47.484;9.726;2023-04-28T13:59:42;2.30;;;1.30;;
13051;SDS011;6592;47.484;9.726;2023-04-28T14:02:10;2.97;;;1.25;;
13051;SDS011;6592;47.484;9.726;2023-04-28T14:04:39;2.38;;;1.42;;
13051;SDS011;6592;47.484;9.726;2023-04-28T14:07:15;3.42;;;1.73;;
13051;SDS011;6592;47.484;9.726;2023-04-28T14:09:44;4.10;;;1.50;;
13051;SDS011;6592;47.484;9.726;2023-04-28T14:12:12;4.13;;;1.90;;
13051;SDS011;6592;47.484;9.726;2023-04-28T14:14:41;4.45;;;1.77;;
13051;SDS011;6592;47.484;9.726;2023-04-28T14:17:10;3.25;;;1.77;;
13051;SDS011;6592;47.484;9.726;2023-04-28T14:19:38;3.85;;;1.70;;
13051;SDS011;6592;47.484;9.726;2023-04-28T14:22:06;4.13;;;2.05;;
13051;SDS011;6592;47.484;9.726;2023-04-28T14:24:36;2.08;;;1.20;;
13051;SDS011;6592;47.484;9.726;2023-04-28T14:27:04;5.90;;;2.45;;
13051;SDS011;6592;47.484;9.726;2023-04-28T14:29:33;4.38;;;1.80;;
13051;SDS011;6592;47.484;9.726;2023-04-28T14:32:01;4.68;;;2.10;;
13051;SDS011;6592;47.484;9.726;2023-04-28T14:34:29;3.78;;;1.92;;
13051;SDS011;6592;47.484;9.726;2023-04-28T14:36:58;4.82;;;2.40;;
13051;SDS011;6592;47.484;9.726;2023-04-28T14:39:26;3.47;;;2.05;;
13051;SDS011;6592;47.484;9.726;2023-04-28T14:41:56;4.85;;;2.15;;
13051;SDS011;6592;47.484;9.726;2023-04-28T14:44:24;4.00;;;2.20;;
13051;SDS011;6592;47.484;9.726;2023-04-28T14:46:52;4.30;;;2.22;;
13051;SDS011;6592;47.484;9.726;2023-04-28T14:49:21;4.78;;;2.63;;
13051;SDS011;6592;47.484;9.726;2023-04-28T14:51:49;5.15;;;2.42;;
13051;SDS011;6592;47.484;9.726;2023-04-28T14:54:18;4.50;;;2.10;;
13051;SDS011;6592;47.484;9.726;2023-04-28T14:56:47;2.70;;;1.67;;
13051;SDS011;6592;47.484;9.726;2023-04-28T14:59:17;3.40;;;1.85;;
13051;SDS011;6592;47.484;9.726;2023-04-28T15:01:45;4.32;;;2.30;;
13051;SDS011;6592;47.484;9.726;2023-04-28T15:04:16;4.20;;;2.40;;
13051;SDS011;6592;47.484;9.726;2023-04-28T15:06:44;3.78;;;2.15;;
13051;SDS011;6592;47.484;9.726;2023-04-28T15:09:13;6.07;;;2.47;;
13051;SDS011;6592;47.484;9.726;2023-04-28T15:11:41;4.90;;;2.08;;
13051;SDS011;6592;47.484;9.726;2023-04-28T15:14:09;4.30;;;2.13;;
13051;SDS011;6592;47.484;9.726;2023-04-28T15:16:39;4.00;;;2.30;;
13051;SDS011;6592;47.484;9.726;2023-04-28T15:19:07;4.00;;;1.85;;
13051;SDS011;6592;47.484;9.726;2023-04-28T15:21:36;3.75;;;1.92;;
13051;SDS011;6592;47.484;9.726;2023-04-28T15:24:04;6.15;;;2.30;;
13051;SDS011;6592;47.484;9.726;2023-04-28T15:26:33;4.30;;;1.83;;
13051;SDS011;6592;47.484;9.726;2023-04-28T15:29:01;4.40;;;2.10;;
13051;SDS011;6592;47.484;9.726;2023-04-28T15:31:29;4.05;;;2.00;;
13051;SDS011;6592;47.484;9.726;2023-04-28T15:33:59;3.72;;;2.15;;